createdAt,value
2022-09-14T00:01:25.280Z,99245.84
2022-09-14T00:03:54.759Z,99252.97
2022-09-14T00:06:23.307Z,99257.25
2022-09-14T00:08:52.564Z,99261.03
2022-09-14T00:11:21.266Z,99273.41
2022-09-14T00:13:49.847Z,99265.50
2022-09-14T00:16:20.206Z,99262.38
2022-09-14T00:18:51.473Z,99265.56
2022-09-14T00:21:19.869Z,99263.50
2022-09-14T00:23:48.459Z,99262.94
2022-09-14T00:26:17.892Z,99258.25
2022-09-14T00:28:47.362Z,99265.03
2022-09-14T00:31:16.015Z,99247.75
2022-09-14T00:33:47.402Z,99250.09
2022-09-14T00:36:16.407Z,99256.25
2022-09-14T00:38:44.830Z,99249.31
2022-09-14T00:41:14.177Z,99249.47
2022-09-14T00:43:55.104Z,99243.63
2022-09-14T00:46:23.537Z,99242.97
2022-09-14T00:48:53.789Z,99243.63
2022-09-14T00:51:22.598Z,99246.91
2022-09-14T00:53:51.031Z,99254.66
2022-09-14T00:56:19.457Z,99255.78
2022-09-14T00:58:48.001Z,99257.75
2022-09-14T01:01:16.769Z,99256.59
2022-09-14T01:03:45.160Z,99253.31
2022-09-14T01:06:17.476Z,99255.88
2022-09-14T01:08:49.762Z,99251.19
2022-09-14T01:11:22.078Z,99250.66
2022-09-14T01:13:52.547Z,99248.63
2022-09-14T01:16:22.396Z,99239.66
2022-09-14T01:18:51.867Z,99235.97
2022-09-14T01:21:22.443Z,99244.34
2022-09-14T01:23:52.004Z,99243.88
2022-09-14T01:26:29.699Z,99232.97
2022-09-14T01:28:59.820Z,99243.44
2022-09-14T01:31:28.722Z,99240.13
2022-09-14T01:33:59.094Z,99239.88
2022-09-14T01:36:27.694Z,99237.53
2022-09-14T01:46:20.331Z,99234.75
2022-09-14T01:48:49.918Z,99227.78
2022-09-14T01:51:19.294Z,99227.38
2022-09-14T01:53:48.445Z,99232.91
2022-09-14T01:56:17.427Z,99234.13
2022-09-14T01:58:46.230Z,99235.78
2022-09-14T02:01:15.203Z,99226.78
2022-09-14T02:03:48.000Z,99218.41
2022-09-14T02:06:17.441Z,99221.06
2022-09-14T02:08:45.813Z,99213.31
2022-09-14T02:11:14.199Z,99220.69
2022-09-14T02:13:42.269Z,99209.41
2022-09-14T02:16:10.743Z,99212.53
2022-09-14T02:18:39.287Z,99212.94
2022-09-14T02:21:10.779Z,99209.06
2022-09-14T02:23:39.147Z,99209.72
2022-09-14T02:26:07.511Z,99208.91
2022-09-14T02:28:35.685Z,99211.78
2022-09-14T02:31:06.751Z,99215.63
2022-09-14T02:33:36.950Z,99208.47
2022-09-14T02:36:07.303Z,99209.13
2022-09-14T02:38:38.852Z,99216.59
2022-09-14T02:41:10.271Z,99214.28
2022-09-14T02:43:39.755Z,99208.88
2022-09-14T02:46:10.035Z,99211.19
2022-09-14T02:48:40.159Z,99208.88
2022-09-14T02:51:10.345Z,99213.19
2022-09-14T02:53:41.367Z,99211.13
2022-09-14T02:56:10.401Z,99213.56
2022-09-14T02:58:40.314Z,99209.03
2022-09-14T03:01:09.758Z,99205.34
2022-09-14T03:03:38.206Z,99216.59
2022-09-14T03:06:06.843Z,99211.56
2022-09-14T03:08:35.382Z,99206.44
2022-09-14T03:11:05.136Z,99214.44
2022-09-14T03:13:34.693Z,99216.47
2022-09-14T03:16:05.954Z,99217.72
2022-09-14T03:18:34.471Z,99213.00
2022-09-14T03:21:03.979Z,99214.00
2022-09-14T03:23:32.538Z,99213.56
2022-09-14T03:26:00.897Z,99218.28
2022-09-14T03:28:30.401Z,99210.50
2022-09-14T03:31:01.632Z,99214.41
2022-09-14T03:33:30.069Z,99214.34
2022-09-14T03:35:58.397Z,99214.34
2022-09-14T03:38:30.169Z,99202.66
2022-09-14T03:40:59.666Z,99194.88
2022-09-14T03:43:28.066Z,99192.63
2022-09-14T03:45:57.938Z,99197.94
2022-09-14T03:48:26.406Z,99203.00
2022-09-14T03:50:54.764Z,99204.06
2022-09-14T03:53:23.146Z,99203.28
2022-09-14T03:55:51.143Z,99214.66
2022-09-14T03:58:19.595Z,99207.31
2022-09-14T04:00:48.029Z,99209.59
2022-09-14T04:03:18.136Z,99197.28
2022-09-14T04:05:55.173Z,99195.00
2022-09-14T04:08:23.651Z,99204.66
2022-09-14T04:10:51.695Z,99201.75
2022-09-14T04:13:20.467Z,99193.31
2022-09-14T04:15:57.140Z,99198.84
2022-09-14T04:18:27.353Z,99194.56
2022-09-14T04:20:56.722Z,99189.88
2022-09-14T04:23:25.620Z,99188.69
2022-09-14T04:25:53.788Z,99190.09
2022-09-14T04:28:22.598Z,99184.78
2022-09-14T04:30:58.208Z,99190.59
2022-09-14T04:33:30.602Z,99186.69
2022-09-14T04:35:59.962Z,99181.56
2022-09-14T04:38:28.498Z,99180.34
2022-09-14T04:40:56.920Z,99179.34
2022-09-14T04:43:25.125Z,99186.94
2022-09-14T04:45:53.726Z,99185.06
2022-09-14T04:48:22.166Z,99183.66
2022-09-14T04:50:52.015Z,99184.50
2022-09-14T04:53:20.440Z,99184.84
2022-09-14T04:55:48.474Z,99186.31
2022-09-14T04:58:16.809Z,99183.63
2022-09-14T05:00:46.560Z,99185.25
2022-09-14T05:03:14.954Z,99191.41
2022-09-14T05:05:44.868Z,99195.38
2022-09-14T05:08:14.730Z,99196.81
2022-09-14T05:10:42.800Z,99191.72
2022-09-14T05:13:11.167Z,99189.66
2022-09-14T05:15:39.576Z,99190.06
2022-09-14T05:18:07.986Z,99197.81
2022-09-14T05:20:37.249Z,99188.47
2022-09-14T05:23:06.909Z,99190.94
2022-09-14T05:25:36.311Z,99192.34
2022-09-14T05:28:04.659Z,99187.47
2022-09-14T05:30:33.000Z,99181.72
2022-09-14T05:33:01.422Z,99183.38
2022-09-14T05:35:29.772Z,99184.88
2022-09-14T05:37:58.128Z,99177.53
2022-09-14T05:40:26.380Z,99176.25
2022-09-14T05:42:56.976Z,99176.66
2022-09-14T05:45:25.359Z,99185.06
2022-09-14T05:47:53.748Z,99190.03
2022-09-14T05:50:23.270Z,99178.72
2022-09-14T05:52:51.650Z,99189.19
2022-09-14T05:55:19.972Z,99188.59
2022-09-14T05:57:49.815Z,99186.53
2022-09-14T06:00:19.755Z,99185.06
2022-09-14T06:02:48.262Z,99171.72
2022-09-14T06:05:16.848Z,99179.56
2022-09-14T06:07:44.970Z,99177.66
2022-09-14T06:10:13.607Z,99183.22
2022-09-14T06:12:41.938Z,99181.56
2022-09-14T06:15:10.995Z,99183.00
2022-09-14T06:17:40.744Z,99188.75
2022-09-14T06:20:09.600Z,99184.44
2022-09-14T06:22:37.573Z,99183.44
2022-09-14T06:25:06.251Z,99187.13
2022-09-14T06:27:34.725Z,99179.91
2022-09-14T06:30:03.018Z,99188.31
2022-09-14T06:32:31.743Z,99184.63
2022-09-14T06:35:01.660Z,99192.84
2022-09-14T06:37:29.631Z,99199.63
2022-09-14T06:39:58.094Z,99206.84
2022-09-14T06:42:26.415Z,99206.84
2022-09-14T06:44:54.754Z,99201.06
2022-09-14T06:47:24.591Z,99207.03
2022-09-14T06:49:52.588Z,99206.44
2022-09-14T06:52:22.299Z,99211.34
2022-09-14T06:54:50.621Z,99211.34
2022-09-14T06:57:18.999Z,99218.34
2022-09-14T06:59:47.369Z,99218.13
2022-09-14T07:02:15.896Z,99219.75
2022-09-14T07:04:43.976Z,99220.75
2022-09-14T07:07:12.330Z,99219.53
2022-09-14T07:09:42.127Z,99226.50
2022-09-14T07:12:11.743Z,99227.13
2022-09-14T07:14:40.119Z,99221.41
2022-09-14T07:17:08.445Z,99223.53
2022-09-14T07:19:36.425Z,99231.03
2022-09-14T07:22:04.994Z,99218.72
2022-09-14T07:24:33.486Z,99205.31
2022-09-14T07:27:03.671Z,99197.53
2022-09-14T07:29:32.126Z,99192.56
2022-09-14T07:32:00.468Z,99191.59
2022-09-14T07:34:28.434Z,99196.88
2022-09-14T07:36:56.840Z,99193.97
2022-09-14T07:39:25.160Z,99192.84
2022-09-14T07:41:53.780Z,99195.75
2022-09-14T07:44:23.544Z,99205.13
2022-09-14T07:46:51.496Z,99200.66
2022-09-14T07:49:19.838Z,99193.72
2022-09-14T07:51:48.783Z,99188.13
2022-09-14T07:54:18.105Z,99175.22
2022-09-14T07:56:46.541Z,99172.38
2022-09-14T07:59:35.162Z,99174.13
2022-09-14T08:02:06.255Z,99177.81
2022-09-14T08:04:35.205Z,99178.06
2022-09-14T08:07:03.776Z,99191.00
2022-09-14T08:09:32.185Z,99195.69
2022-09-14T08:12:00.656Z,99202.63
2022-09-14T08:14:29.113Z,99200.16
2022-09-14T08:16:57.547Z,99195.72
2022-09-14T08:19:27.089Z,99186.97
2022-09-14T08:21:55.386Z,99177.69
2022-09-14T08:24:23.700Z,99180.19
2022-09-14T08:26:52.117Z,99177.50
2022-09-14T08:29:20.697Z,99185.16
2022-09-14T08:31:51.696Z,99189.53
2022-09-14T08:34:20.244Z,99187.66
2022-09-14T08:36:49.965Z,99187.44
2022-09-14T08:39:18.677Z,99184.63
2022-09-14T08:41:56.566Z,99194.91
2022-09-14T08:44:26.141Z,99189.16
2022-09-14T08:46:55.537Z,99193.69
2022-09-14T08:49:25.876Z,99191.09
2022-09-14T08:51:55.514Z,99185.00
2022-09-14T08:54:23.799Z,99180.31
2022-09-14T08:56:55.590Z,99170.22
2022-09-14T08:59:28.053Z,99172.44
2022-09-14T09:01:58.825Z,99172.28
2022-09-14T09:04:31.392Z,99171.06
2022-09-14T09:07:02.428Z,99181.53
2022-09-14T09:09:32.566Z,99178.88
2022-09-14T09:12:00.893Z,99168.09
2022-09-14T09:14:31.312Z,99169.72
2022-09-14T09:17:00.424Z,99176.75
2022-09-14T09:19:29.758Z,99161.69
2022-09-14T09:21:58.006Z,99175.38
2022-09-14T09:24:30.594Z,99167.56
2022-09-14T09:26:59.993Z,99177.63
2022-09-14T09:29:28.284Z,99170.13
2022-09-14T09:32:14.327Z,99169.31
2022-09-14T09:34:45.215Z,99174.31
2022-09-14T09:37:38.723Z,99171.84
2022-09-14T09:40:14.338Z,99165.84
2022-09-14T09:42:55.273Z,99167.28
2022-09-14T09:45:23.589Z,99164.03
2022-09-14T09:47:51.906Z,99165.97
2022-09-14T09:50:21.105Z,99166.88
2022-09-14T09:52:50.626Z,99168.34
2022-09-14T09:55:21.579Z,99172.25
2022-09-14T09:57:49.940Z,99161.09
2022-09-14T10:00:22.021Z,99163.09
2022-09-14T10:02:50.490Z,99177.78
2022-09-14T10:05:22.245Z,99165.00
2022-09-14T10:07:57.227Z,99168.03
2022-09-14T10:10:28.283Z,99175.38
2022-09-14T10:12:57.096Z,99167.88
2022-09-14T10:15:27.079Z,99164.19
2022-09-14T10:17:56.271Z,99171.06
2022-09-14T10:20:25.720Z,99179.44
2022-09-14T10:22:53.869Z,99174.41
2022-09-14T10:25:23.676Z,99172.81
2022-09-14T10:28:00.070Z,99177.72
2022-09-14T10:30:29.264Z,99178.34
2022-09-14T10:33:00.288Z,99179.94
2022-09-14T10:35:31.305Z,99174.69
2022-09-14T10:38:09.347Z,99177.78
2022-09-14T10:40:37.801Z,99172.38
2022-09-14T10:43:11.223Z,99177.13
2022-09-14T10:45:40.975Z,99172.81
2022-09-14T10:48:29.903Z,99171.94
2022-09-14T10:50:59.800Z,99161.88
2022-09-14T10:53:34.977Z,99158.56
2022-09-14T10:56:03.893Z,99156.19
2022-09-14T10:58:37.699Z,99158.19
2022-09-14T11:01:14.653Z,99156.78
2022-09-14T11:03:47.082Z,99159.19
2022-09-14T11:06:18.731Z,99168.41
2022-09-14T11:08:47.905Z,99178.97
2022-09-14T11:11:20.678Z,99178.38
2022-09-14T11:13:54.147Z,99172.25
2022-09-14T11:16:32.936Z,99175.50
2022-09-14T11:19:03.624Z,99168.91
2022-09-14T11:21:35.517Z,99165.31
2022-09-14T11:24:05.639Z,99166.50
2022-09-14T11:26:38.060Z,99174.81
2022-09-14T11:29:13.537Z,99165.50
2022-09-14T11:31:55.318Z,99170.09
2022-09-14T11:34:34.043Z,99169.84
2022-09-14T11:37:04.871Z,99166.31
2022-09-14T11:39:33.920Z,99167.94
2022-09-14T11:42:02.952Z,99163.09
2022-09-14T11:44:33.245Z,99160.97
2022-09-14T11:47:03.517Z,99162.69
2022-09-14T11:49:31.946Z,99166.22
2022-09-14T11:52:02.000Z,99145.63
2022-09-14T11:54:30.519Z,99147.88
2022-09-14T11:57:00.126Z,99155.38
2022-09-14T11:59:37.295Z,99158.53
2022-09-14T12:02:23.606Z,99159.41
2022-09-14T12:05:13.132Z,99159.59
2022-09-14T12:08:41.932Z,99152.59
2022-09-14T12:11:28.760Z,99170.59
2022-09-14T12:14:30.464Z,99154.66
2022-09-14T12:20:35.703Z,99137.59
2022-09-14T12:23:14.889Z,99145.88
2022-09-14T12:25:58.157Z,99144.81
2022-09-14T12:28:39.102Z,99148.28
2022-09-14T12:31:13.065Z,99149.66
2022-09-14T12:34:25.860Z,99146.81
2022-09-14T12:37:21.872Z,99138.56
2022-09-14T12:40:36.495Z,99133.09
2022-09-14T12:43:48.391Z,99133.81
2022-09-14T12:46:38.669Z,99137.75
2022-09-14T12:49:31.046Z,99135.78
2022-09-14T12:52:05.669Z,99129.19
2022-09-14T12:54:49.234Z,99135.81
2022-09-14T12:57:31.324Z,99135.00
2022-09-14T13:00:11.039Z,99128.34
2022-09-14T13:02:56.077Z,99131.34
2022-09-14T13:05:26.995Z,99124.25
2022-09-14T13:07:55.677Z,99143.91
2022-09-14T13:10:26.615Z,99135.44
2022-09-14T13:12:56.891Z,99134.63
2022-09-14T13:15:27.831Z,99133.09
2022-09-14T13:18:03.773Z,99138.78
2022-09-14T13:20:33.949Z,99128.63
2022-09-14T13:23:02.581Z,99125.84
2022-09-14T13:25:36.316Z,99132.28
2022-09-14T13:28:12.660Z,99129.94
2022-09-14T13:30:43.286Z,99123.84
2022-09-14T13:33:17.351Z,99121.50
2022-09-14T13:35:48.898Z,99119.28
2022-09-14T13:38:19.894Z,99115.44
2022-09-14T13:40:49.867Z,99122.66
2022-09-14T13:43:19.434Z,99114.38
2022-09-14T13:45:48.390Z,99114.91
2022-09-14T13:48:26.887Z,99111.50
2022-09-14T13:50:56.027Z,99113.13
2022-09-14T13:53:48.634Z,99110.81
2022-09-14T13:56:18.823Z,99107.50
2022-09-14T13:58:48.582Z,99103.59
2022-09-14T14:01:26.276Z,99104.34
2022-09-14T14:03:58.359Z,99103.59
2022-09-14T14:06:29.963Z,99099.97
2022-09-14T14:09:02.958Z,99108.50
2022-09-14T14:11:35.358Z,99095.22
2022-09-14T14:14:15.315Z,99093.56
2022-09-14T14:16:44.000Z,99086.66
2022-09-14T14:19:29.599Z,99092.97
2022-09-14T14:22:19.355Z,99095.75
2022-09-14T14:27:39.012Z,99090.84
2022-09-14T14:30:14.478Z,99088.81
2022-09-14T14:32:43.103Z,99091.91
2022-09-14T14:35:18.704Z,99085.06
2022-09-14T14:37:47.963Z,99088.59
2022-09-14T14:40:17.819Z,99078.56
2022-09-14T14:42:47.262Z,99087.69
2022-09-14T14:45:19.286Z,99085.50
2022-09-14T14:47:48.848Z,99086.91
2022-09-14T14:50:20.978Z,99095.28
2022-09-14T14:52:49.390Z,99082.31
2022-09-14T14:55:18.252Z,99086.72
2022-09-14T14:57:47.197Z,99088.25
2022-09-14T15:00:18.162Z,99080.34
2022-09-14T15:02:47.276Z,99071.06
2022-09-14T15:05:16.199Z,99075.59
2022-09-14T15:07:46.289Z,99068.28
2022-09-14T15:10:16.642Z,99063.06
2022-09-14T15:12:45.067Z,99071.59
2022-09-14T15:15:14.803Z,99059.03
2022-09-14T15:17:43.772Z,99061.13
2022-09-14T15:20:13.148Z,99061.63
2022-09-14T15:22:42.473Z,99064.91
2022-09-14T15:25:13.510Z,99061.66
2022-09-14T15:27:42.163Z,99052.38
2022-09-14T15:30:12.747Z,99054.88
2022-09-14T15:32:41.802Z,99057.47
2022-09-14T15:35:13.043Z,99055.47
2022-09-14T15:37:41.452Z,99059.47
2022-09-14T15:40:13.082Z,99064.72
2022-09-14T15:42:41.798Z,99066.50
2022-09-14T15:45:11.214Z,99060.06
2022-09-14T15:47:42.923Z,99057.34
2022-09-14T15:50:11.848Z,99052.69
2022-09-14T15:52:40.562Z,99048.94
2022-09-14T15:55:11.058Z,99050.31
2022-09-14T15:57:41.386Z,99054.69
2022-09-14T16:00:11.155Z,99050.47
2022-09-14T16:02:42.621Z,99051.28
2022-09-14T16:05:13.049Z,99047.44
2022-09-14T16:07:41.947Z,99046.72
2022-09-14T16:10:11.310Z,99054.19
2022-09-14T16:12:41.583Z,99044.16
2022-09-14T16:15:11.147Z,99048.00
2022-09-14T16:17:39.939Z,99037.34
2022-09-14T16:20:10.831Z,99041.44
2022-09-14T16:22:39.296Z,99037.00
2022-09-14T16:25:08.141Z,99041.41
2022-09-14T16:27:37.037Z,99038.59
2022-09-14T16:30:08.787Z,99035.75
2022-09-14T16:32:37.555Z,99045.72
2022-09-14T16:35:08.299Z,99043.34
2022-09-14T16:37:36.842Z,99039.84
2022-09-14T16:40:06.300Z,99038.50
2022-09-14T16:42:34.991Z,99046.75
2022-09-14T16:45:03.661Z,99042.09
2022-09-14T16:47:33.856Z,99039.44
2022-09-14T16:50:02.687Z,99034.97
2022-09-14T16:52:31.059Z,99035.66
2022-09-14T16:54:59.907Z,99037.38
2022-09-14T16:57:29.936Z,99025.91
2022-09-14T16:59:58.749Z,99034.38
2022-09-14T17:02:27.560Z,99038.88
2022-09-14T17:04:58.071Z,99045.94
2022-09-14T17:07:26.867Z,99046.78
2022-09-14T17:09:55.548Z,99042.03
2022-09-14T17:12:24.354Z,99047.78
2022-09-14T17:14:53.843Z,99047.56
2022-09-14T17:17:22.591Z,99041.63
2022-09-14T17:19:52.177Z,99052.13
2022-09-14T17:22:22.326Z,99052.19
2022-09-14T17:24:51.056Z,99042.75
2022-09-14T17:27:20.114Z,99045.03
2022-09-14T17:29:50.062Z,99041.38
2022-09-14T17:32:18.724Z,99046.09
2022-09-14T17:34:47.294Z,99053.94
2022-09-14T17:37:16.166Z,99047.56
2022-09-14T17:39:46.377Z,99046.97
2022-09-14T17:42:15.059Z,99055.19
2022-09-14T17:44:44.847Z,99056.44
2022-09-14T17:47:13.725Z,99050.56
2022-09-14T17:49:42.238Z,99057.72
2022-09-14T17:52:10.873Z,99054.25
2022-09-14T17:54:40.930Z,99050.97
2022-09-14T17:57:11.521Z,99048.50
2022-09-14T17:59:40.716Z,99050.56
2022-09-14T18:02:10.748Z,99047.91
2022-09-14T18:04:40.058Z,99047.28
2022-09-14T18:07:10.910Z,99046.97
2022-09-14T18:09:39.779Z,99047.78
2022-09-14T18:12:10.414Z,99048.19
2022-09-14T18:14:41.074Z,99048.00
2022-09-14T18:17:09.818Z,99045.78
2022-09-14T18:19:38.784Z,99049.94
2022-09-14T18:22:08.118Z,99047.88
2022-09-14T18:24:38.937Z,99045.03
2022-09-14T18:27:07.658Z,99049.31
2022-09-14T18:29:36.636Z,99049.75
2022-09-14T18:32:07.171Z,99056.97
2022-09-14T18:34:35.647Z,99054.47
2022-09-14T18:37:04.776Z,99058.19
2022-09-14T18:39:33.560Z,99049.56
2022-09-14T18:42:02.906Z,99050.59
2022-09-14T18:44:31.700Z,99051.66
2022-09-14T18:47:00.850Z,99050.81
2022-09-14T18:49:30.696Z,99044.69
2022-09-14T18:51:59.905Z,99036.88
2022-09-14T18:54:28.642Z,99031.16
2022-09-14T18:56:59.924Z,99030.97
2022-09-14T18:59:28.665Z,99035.06
2022-09-14T19:01:57.509Z,99034.47
2022-09-14T19:04:25.888Z,99028.94
2022-09-14T19:06:56.063Z,99030.19
2022-09-14T19:09:24.980Z,99034.50
2022-09-14T19:11:53.631Z,99019.72
2022-09-14T19:14:22.799Z,99017.69
2022-09-14T19:16:51.690Z,99013.00
2022-09-14T19:19:20.603Z,99012.56
2022-09-14T19:21:49.302Z,99011.97
2022-09-14T19:24:19.882Z,99019.34
2022-09-14T19:26:50.443Z,99024.69
2022-09-14T19:29:21.597Z,99026.34
2022-09-14T19:31:51.784Z,99024.47
2022-09-14T19:34:21.534Z,99033.31
2022-09-14T19:36:50.751Z,99032.28
2022-09-14T19:39:21.093Z,99025.50
2022-09-14T19:41:49.610Z,99026.31
2022-09-14T19:44:23.584Z,99021.81
2022-09-14T19:46:54.726Z,99024.47
2022-09-14T19:49:28.273Z,99022.84
2022-09-14T19:51:57.697Z,99017.91
2022-09-14T19:54:29.326Z,99013.81
2022-09-14T19:56:59.484Z,99018.31
2022-09-14T19:59:29.872Z,99011.34
2022-09-14T20:01:59.610Z,99006.44
2022-09-14T20:04:31.821Z,99001.31
2022-09-14T20:07:08.791Z,99009.53
2022-09-14T20:09:39.125Z,99004.22
2022-09-14T20:12:08.098Z,99006.28
2022-09-14T20:14:36.882Z,99016.97
2022-09-14T20:17:06.545Z,99007.94
2022-09-14T20:19:36.567Z,99012.44
2022-09-14T20:22:05.204Z,99002.63
2022-09-14T20:24:38.219Z,99001.59
2022-09-14T20:27:08.641Z,99008.56
2022-09-14T20:29:37.467Z,98997.69
2022-09-14T20:32:07.122Z,98994.81
2022-09-14T20:34:35.677Z,98987.44
2022-09-14T20:37:04.503Z,98986.59
2022-09-14T20:39:36.075Z,98985.81
2022-09-14T20:42:05.087Z,98995.44
2022-09-14T20:44:35.464Z,98993.38
2022-09-14T20:47:03.952Z,98984.56
2022-09-14T20:49:32.445Z,98993.38
2022-09-14T20:52:02.977Z,98996.06
2022-09-14T20:54:31.771Z,98997.28
2022-09-14T20:57:04.253Z,98996.06
2022-09-14T20:59:35.010Z,98999.31
2022-09-14T21:02:05.656Z,99002.59
2022-09-14T21:04:35.563Z,98994.81
2022-09-14T21:07:04.425Z,98996.47
2022-09-14T21:09:33.203Z,99002.22
2022-09-14T21:12:02.310Z,99001.78
2022-09-14T21:14:31.221Z,98985.81
2022-09-14T21:17:01.389Z,98990.72
2022-09-14T21:19:30.442Z,98987.69
2022-09-14T21:21:59.276Z,98990.13
2022-09-14T21:24:31.183Z,98991.34
2022-09-14T21:27:00.161Z,98990.94
2022-09-14T21:29:28.947Z,98996.06
2022-09-14T21:31:57.844Z,98988.50
2022-09-14T21:34:27.678Z,98995.22
2022-09-14T21:36:56.614Z,98988.91
2022-09-14T21:39:27.201Z,98988.28
2022-09-14T21:41:59.418Z,98983.16
2022-09-14T21:44:33.215Z,98977.59
2022-09-14T21:47:02.015Z,98978.03
2022-09-14T21:49:32.257Z,98981.53
2022-09-14T21:52:01.870Z,98983.75
2022-09-14T21:54:30.811Z,98986.22
2022-09-14T21:56:59.515Z,98980.91
2022-09-14T21:59:28.232Z,98980.50
2022-09-14T22:01:56.792Z,98986.44
2022-09-14T22:04:26.985Z,98979.88
2022-09-14T22:06:57.476Z,98977.59
2022-09-14T22:09:26.867Z,98981.69
2022-09-14T22:11:55.915Z,98971.88
2022-09-14T22:14:27.035Z,98971.25
2022-09-14T22:16:56.357Z,98955.28
2022-09-14T22:19:26.904Z,98965.31
2022-09-14T22:21:57.285Z,98952.63
2022-09-14T22:24:26.741Z,98940.13
2022-09-14T22:26:56.167Z,98943.00
2022-09-14T22:29:25.398Z,98937.06
2022-09-14T22:31:54.189Z,98939.09
2022-09-14T22:34:23.096Z,98941.97
2022-09-14T22:36:51.950Z,98941.16
2022-09-14T22:39:22.069Z,98934.59
2022-09-14T22:41:50.753Z,98936.03
2022-09-14T22:44:19.424Z,98932.16
2022-09-14T22:46:47.966Z,98935.22
2022-09-14T22:49:16.889Z,98931.34
2022-09-14T22:51:45.776Z,98926.81
2022-09-14T22:54:14.597Z,98928.06
2022-09-14T22:56:44.805Z,98919.25
2022-09-14T22:59:16.494Z,98913.28
2022-09-14T23:01:44.989Z,98915.16
2022-09-14T23:04:15.315Z,98917.41
2022-09-14T23:06:46.282Z,98912.47
2022-09-14T23:09:16.857Z,98910.22
2022-09-14T23:11:47.376Z,98897.72
2022-09-14T23:14:17.256Z,98897.91
2022-09-14T23:16:46.118Z,98895.44
2022-09-14T23:19:16.558Z,98901.59
2022-09-14T23:21:45.609Z,98895.25
2022-09-14T23:24:14.652Z,98893.38
2022-09-14T23:26:43.726Z,98897.28
2022-09-14T23:29:16.572Z,98900.34
2022-09-14T23:31:45.353Z,98901.38
2022-09-14T23:34:14.341Z,98889.47
2022-09-14T23:36:43.135Z,98890.50
2022-09-14T23:39:12.113Z,98892.34
2022-09-14T23:41:40.897Z,98880.66
2022-09-14T23:44:11.137Z,98885.81
2022-09-14T23:46:41.342Z,98886.22
2022-09-14T23:49:11.377Z,98889.72
2022-09-14T23:51:40.762Z,98889.31
2022-09-14T23:54:10.060Z,98890.75
2022-09-14T23:56:39.690Z,98883.97
2022-09-14T23:59:10.871Z,98887.50
